sensor_id;sensor_type;location;lat;lon;timestamp;temperature;humidity
23683;DHT22;24897;53.514;10.482;2023-02-03T00:27:22;5.30;99.90
23683;DHT22;24897;53.514;10.482;2023-02-03T00:30:10;5.20;99.90
23683;DHT22;24897;53.514;10.482;2023-02-03T00:33:01;5.30;99.90
23683;DHT22;24897;53.514;10.482;2023-02-03T00:38:33;5.40;99.90
23683;DHT22;24897;53.514;10.482;2023-02-03T00:41:39;6.70;99.90
23683;DHT22;24897;53.514;10.482;2023-02-03T00:48:03;5.50;99.90
23683;DHT22;24897;53.514;10.482;2023-02-03T00:51:14;5.60;99.90
23683;DHT22;24897;53.514;10.482;2023-02-03T00:54:22;5.80;99.90
23683;DHT22;24897;53.514;10.482;2023-02-03T00:57:11;5.90;99.90
23683;DHT22;24897;53.514;10.482;2023-02-03T01:00:44;5.70;99.90
23683;DHT22;24897;53.514;10.482;2023-02-03T01:10:57;7.00;99.90
23683;DHT22;24897;53.514;10.482;2023-02-03T01:14:29;6.40;99.90
23683;DHT22;24897;53.514;10.482;2023-02-03T01:17:16;6.10;99.90
23683;DHT22;24897;53.514;10.482;2023-02-03T01:23:04;6.30;99.90
23683;DHT22;24897;53.514;10.482;2023-02-03T01:25:49;7.90;99.90
23683;DHT22;24897;53.514;10.482;2023-02-03T01:28:56;6.30;99.90
23683;DHT22;24897;53.514;10.482;2023-02-03T01:31:57;6.30;99.90
23683;DHT22;24897;53.514;10.482;2023-02-03T01:34:44;5.90;99.90
23683;DHT22;24897;53.514;10.482;2023-02-03T01:48:17;7.30;99.90
23683;DHT22;24897;53.514;10.482;2023-02-03T01:51:29;7.10;99.90
23683;DHT22;24897;53.514;10.482;2023-02-03T01:54:39;7.20;99.90
23683;DHT22;24897;53.514;10.482;2023-02-03T02:09:21;7.50;99.90
23683;DHT22;24897;53.514;10.482;2023-02-03T02:13:00;7.60;99.90
23683;DHT22;24897;53.514;10.482;2023-02-03T02:19:17;7.10;99.90
23683;DHT22;24897;53.514;10.482;2023-02-03T02:25:37;8.30;99.90
23683;DHT22;24897;53.514;10.482;2023-02-03T02:38:00;7.70;99.90
23683;DHT22;24897;53.514;10.482;2023-02-03T02:44:36;7.60;99.90
23683;DHT22;24897;53.514;10.482;2023-02-03T02:47:41;7.80;99.90
23683;DHT22;24897;53.514;10.482;2023-02-03T02:50:55;7.80;99.90
23683;DHT22;24897;53.514;10.482;2023-02-03T02:54:08;7.80;99.90
23683;DHT22;24897;53.514;10.482;2023-02-03T02:56:59;7.90;99.90
23683;DHT22;24897;53.514;10.482;2023-02-03T02:59:52;7.80;99.90
23683;DHT22;24897;53.514;10.482;2023-02-03T03:02:46;7.80;99.90
23683;DHT22;24897;53.514;10.482;2023-02-03T03:05:40;7.90;99.90
23683;DHT22;24897;53.514;10.482;2023-02-03T03:08:50;7.70;99.90
23683;DHT22;24897;53.514;10.482;2023-02-03T03:12:14;8.90;99.90
23683;DHT22;24897;53.514;10.482;2023-02-03T03:21:50;9.20;99.90
23683;DHT22;24897;53.514;10.482;2023-02-03T03:24:59;7.80;99.90
23683;DHT22;24897;53.514;10.482;2023-02-03T03:27:57;6.90;99.90
23683;DHT22;24897;53.514;10.482;2023-02-03T03:30:42;9.10;99.90
23683;DHT22;24897;53.514;10.482;2023-02-03T03:33:27;8.00;99.90
23683;DHT22;24897;53.514;10.482;2023-02-03T03:36:39;7.90;99.90
23683;DHT22;24897;53.514;10.482;2023-02-03T03:39:33;7.30;99.90
23683;DHT22;24897;53.514;10.482;2023-02-03T03:45:11;9.60;99.90
23683;DHT22;24897;53.514;10.482;2023-02-03T03:48:19;8.20;99.90
23683;DHT22;24897;53.514;10.482;2023-02-03T03:54:25;7.90;99.90
23683;DHT22;24897;53.514;10.482;2023-02-03T03:57:33;8.60;99.90
23683;DHT22;24897;53.514;10.482;2023-02-03T04:00:23;8.00;99.90
23683;DHT22;24897;53.514;10.482;2023-02-03T04:03:36;8.60;99.90
23683;DHT22;24897;53.514;10.482;2023-02-03T04:06:30;8.00;99.90
23683;DHT22;24897;53.514;10.482;2023-02-03T04:09:43;7.90;99.90
23683;DHT22;24897;53.514;10.482;2023-02-03T04:12:30;7.90;99.90
23683;DHT22;24897;53.514;10.482;2023-02-03T04:15:30;8.20;99.90
23683;DHT22;24897;53.514;10.482;2023-02-03T04:18:18;7.80;99.90
23683;DHT22;24897;53.514;10.482;2023-02-03T04:21:04;6.70;99.90
23683;DHT22;24897;53.514;10.482;2023-02-03T04:23:51;8.70;99.90
23683;DHT22;24897;53.514;10.482;2023-02-03T04:26:51;8.80;99.90
23683;DHT22;24897;53.514;10.482;2023-02-03T04:29:43;7.80;99.90
23683;DHT22;24897;53.514;10.482;2023-02-03T04:32:38;7.80;99.90
23683;DHT22;24897;53.514;10.482;2023-02-03T04:35:25;7.80;99.90
23683;DHT22;24897;53.514;10.482;2023-02-03T04:38:29;7.90;99.90
23683;DHT22;24897;53.514;10.482;2023-02-03T04:41:19;7.90;99.90
23683;DHT22;24897;53.514;10.482;2023-02-03T04:44:09;7.80;99.90
23683;DHT22;24897;53.514;10.482;2023-02-03T04:47:10;9.20;99.90
23683;DHT22;24897;53.514;10.482;2023-02-03T04:50:08;7.70;99.90
23683;DHT22;24897;53.514;10.482;2023-02-03T04:53:22;7.70;99.90
23683;DHT22;24897;53.514;10.482;2023-02-03T04:56:23;7.90;99.90
23683;DHT22;24897;53.514;10.482;2023-02-03T04:59:08;7.20;99.90
23683;DHT22;24897;53.514;10.482;2023-02-03T05:01:52;8.10;99.90
23683;DHT22;24897;53.514;10.482;2023-02-03T05:04:43;8.60;99.90
23683;DHT22;24897;53.514;10.482;2023-02-03T05:07:31;7.80;99.90
23683;DHT22;24897;53.514;10.482;2023-02-03T05:10:34;7.70;99.90
23683;DHT22;24897;53.514;10.482;2023-02-03T05:13:22;9.20;99.90
23683;DHT22;24897;53.514;10.482;2023-02-03T05:16:06;7.80;99.90
23683;DHT22;24897;53.514;10.482;2023-02-03T05:19:01;7.80;99.90
23683;DHT22;24897;53.514;10.482;2023-02-03T05:25:05;7.80;99.90
23683;DHT22;24897;53.514;10.482;2023-02-03T05:27:50;7.80;99.90
23683;DHT22;24897;53.514;10.482;2023-02-03T05:30:35;8.30;99.90
23683;DHT22;24897;53.514;10.482;2023-02-03T05:33:19;7.80;99.90
23683;DHT22;24897;53.514;10.482;2023-02-03T05:36:07;8.30;99.90
23683;DHT22;24897;53.514;10.482;2023-02-03T05:41:58;7.10;99.90
23683;DHT22;24897;53.514;10.482;2023-02-03T05:44:51;9.40;99.90
23683;DHT22;24897;53.514;10.482;2023-02-03T05:47:46;8.30;99.90
23683;DHT22;24897;53.514;10.482;2023-02-03T05:50:31;9.10;99.90
23683;DHT22;24897;53.514;10.482;2023-02-03T05:53:19;7.80;99.90
23683;DHT22;24897;53.514;10.482;2023-02-03T05:56:06;8.20;99.90
23683;DHT22;24897;53.514;10.482;2023-02-03T05:58:51;6.70;99.90
23683;DHT22;24897;53.514;10.482;2023-02-03T06:01:39;8.00;99.90
23683;DHT22;24897;53.514;10.482;2023-02-03T06:04:26;8.00;99.90
23683;DHT22;24897;53.514;10.482;2023-02-03T06:07:13;8.10;99.90
23683;DHT22;24897;53.514;10.482;2023-02-03T06:21:35;8.00;99.90
23683;DHT22;24897;53.514;10.482;2023-02-03T06:25:02;7.10;99.90
23683;DHT22;24897;53.514;10.482;2023-02-03T06:28:05;6.80;99.90
23683;DHT22;24897;53.514;10.482;2023-02-03T06:31:19;7.90;99.90
23683;DHT22;24897;53.514;10.482;2023-02-03T06:34:08;8.00;99.90
23683;DHT22;24897;53.514;10.482;2023-02-03T06:36:52;8.40;99.90
23683;DHT22;24897;53.514;10.482;2023-02-03T06:39:42;7.90;99.90
23683;DHT22;24897;53.514;10.482;2023-02-03T06:42:28;7.80;99.90
23683;DHT22;24897;53.514;10.482;2023-02-03T06:45:19;7.30;99.90
23683;DHT22;24897;53.514;10.482;2023-02-03T06:48:06;7.80;99.90
23683;DHT22;24897;53.514;10.482;2023-02-03T06:50:51;7.90;99.90
23683;DHT22;24897;53.514;10.482;2023-02-03T06:53:38;7.90;99.90
23683;DHT22;24897;53.514;10.482;2023-02-03T06:56:26;8.00;99.90
23683;DHT22;24897;53.514;10.482;2023-02-03T06:59:13;9.00;99.90
23683;DHT22;24897;53.514;10.482;2023-02-03T07:02:04;8.00;99.90
23683;DHT22;24897;53.514;10.482;2023-02-03T07:04:48;7.80;99.90
23683;DHT22;24897;53.514;10.482;2023-02-03T07:07:44;8.80;99.90
23683;DHT22;24897;53.514;10.482;2023-02-03T07:10:57;8.00;99.90
23683;DHT22;24897;53.514;10.482;2023-02-03T07:28:58;8.40;99.90
23683;DHT22;24897;53.514;10.482;2023-02-03T07:31:57;8.10;99.90
23683;DHT22;24897;53.514;10.482;2023-02-03T07:34:48;9.20;99.90
23683;DHT22;24897;53.514;10.482;2023-02-03T07:44:06;8.30;99.90
23683;DHT22;24897;53.514;10.482;2023-02-03T07:46:52;8.30;99.90
23683;DHT22;24897;53.514;10.482;2023-02-03T07:49:45;8.50;99.90
23683;DHT22;24897;53.514;10.482;2023-02-03T07:52:29;8.80;99.90
23683;DHT22;24897;53.514;10.482;2023-02-03T07:55:14;8.40;99.90
23683;DHT22;24897;53.514;10.482;2023-02-03T07:58:08;9.00;99.90
23683;DHT22;24897;53.514;10.482;2023-02-03T08:00:52;8.30;99.90
23683;DHT22;24897;53.514;10.482;2023-02-03T08:03:36;8.40;99.90
23683;DHT22;24897;53.514;10.482;2023-02-03T08:06:21;8.40;99.90
23683;DHT22;24897;53.514;10.482;2023-02-03T08:09:18;10.30;99.90
23683;DHT22;24897;53.514;10.482;2023-02-03T08:15:58;8.50;99.90
23683;DHT22;24897;53.514;10.482;2023-02-03T08:18:55;8.50;99.90
23683;DHT22;24897;53.514;10.482;2023-02-03T08:21:43;8.50;99.90
23683;DHT22;24897;53.514;10.482;2023-02-03T08:24:33;9.60;99.90
23683;DHT22;24897;53.514;10.482;2023-02-03T08:27:22;8.30;99.90
23683;DHT22;24897;53.514;10.482;2023-02-03T08:33:18;7.90;99.90
23683;DHT22;24897;53.514;10.482;2023-02-03T08:36:29;7.70;99.90
23683;DHT22;24897;53.514;10.482;2023-02-03T08:43:35;7.40;99.90
23683;DHT22;24897;53.514;10.482;2023-02-03T08:46:44;7.40;99.90
23683;DHT22;24897;53.514;10.482;2023-02-03T08:49:32;7.40;99.90
23683;DHT22;24897;53.514;10.482;2023-02-03T08:56:14;7.50;99.90
23683;DHT22;24897;53.514;10.482;2023-02-03T09:07:00;7.60;99.90
23683;DHT22;24897;53.514;10.482;2023-02-03T09:10:17;7.70;99.90
23683;DHT22;24897;53.514;10.482;2023-02-03T09:13:31;8.00;99.90
23683;DHT22;24897;53.514;10.482;2023-02-03T09:16:44;7.80;99.90
23683;DHT22;24897;53.514;10.482;2023-02-03T09:23:12;8.00;99.90
23683;DHT22;24897;53.514;10.482;2023-02-03T09:29:31;7.30;99.90
23683;DHT22;24897;53.514;10.482;2023-02-03T09:32:52;8.10;99.90
23683;DHT22;24897;53.514;10.482;2023-02-03T09:36:13;7.30;99.90
23683;DHT22;24897;53.514;10.482;2023-02-03T09:39:00;8.20;99.90
23683;DHT22;24897;53.514;10.482;2023-02-03T09:47:44;8.20;99.90
23683;DHT22;24897;53.514;10.482;2023-02-03T09:50:32;8.30;99.90
23683;DHT22;24897;53.514;10.482;2023-02-03T09:56:25;8.30;99.90
23683;DHT22;24897;53.514;10.482;2023-02-03T09:59:10;8.20;99.90
23683;DHT22;24897;53.514;10.482;2023-02-03T10:08:11;8.20;99.90
23683;DHT22;24897;53.514;10.482;2023-02-03T10:17:08;8.30;99.90
23683;DHT22;24897;53.514;10.482;2023-02-03T10:20:01;8.60;99.90
23683;DHT22;24897;53.514;10.482;2023-02-03T10:22:57;8.50;99.90
23683;DHT22;24897;53.514;10.482;2023-02-03T10:25:47;8.40;99.90
23683;DHT22;24897;53.514;10.482;2023-02-03T10:28:39;8.40;99.90
23683;DHT22;24897;53.514;10.482;2023-02-03T10:31:26;8.40;99.90
23683;DHT22;24897;53.514;10.482;2023-02-03T10:34:14;8.40;99.90
23683;DHT22;24897;53.514;10.482;2023-02-03T10:40:12;8.40;99.90
23683;DHT22;24897;53.514;10.482;2023-02-03T10:42:57;8.40;99.90
23683;DHT22;24897;53.514;10.482;2023-02-03T10:46:01;8.50;99.90
23683;DHT22;24897;53.514;10.482;2023-02-03T10:48:45;8.40;99.90
23683;DHT22;24897;53.514;10.482;2023-02-03T10:51:48;8.40;99.90
23683;DHT22;24897;53.514;10.482;2023-02-03T10:54:34;8.50;99.90
23683;DHT22;24897;53.514;10.482;2023-02-03T10:57:19;8.70;99.90
23683;DHT22;24897;53.514;10.482;2023-02-03T11:03:06;8.70;99.90
23683;DHT22;24897;53.514;10.482;2023-02-03T11:08:49;8.40;99.90
23683;DHT22;24897;53.514;10.482;2023-02-03T11:11:33;8.40;99.90
23683;DHT22;24897;53.514;10.482;2023-02-03T11:14:20;8.40;99.90
23683;DHT22;24897;53.514;10.482;2023-02-03T11:17:08;8.60;99.90
23683;DHT22;24897;53.514;10.482;2023-02-03T11:20:13;8.50;99.90
23683;DHT22;24897;53.514;10.482;2023-02-03T11:22:58;8.40;99.90
23683;DHT22;24897;53.514;10.482;2023-02-03T11:25:43;8.40;99.90
23683;DHT22;24897;53.514;10.482;2023-02-03T11:28:28;8.40;99.90
23683;DHT22;24897;53.514;10.482;2023-02-03T11:31:38;8.40;99.90
23683;DHT22;24897;53.514;10.482;2023-02-03T11:34:26;8.50;99.90
23683;DHT22;24897;53.514;10.482;2023-02-03T11:43:16;8.50;99.90
23683;DHT22;24897;53.514;10.482;2023-02-03T11:46:03;8.60;99.90
23683;DHT22;24897;53.514;10.482;2023-02-03T11:49:02;8.50;99.90
23683;DHT22;24897;53.514;10.482;2023-02-03T11:51:57;8.60;99.90
23683;DHT22;24897;53.514;10.482;2023-02-03T11:55:02;8.60;99.90
23683;DHT22;24897;53.514;10.482;2023-02-03T11:58:13;8.70;99.90
23683;DHT22;24897;53.514;10.482;2023-02-03T12:01:17;8.80;99.90
23683;DHT22;24897;53.514;10.482;2023-02-03T12:04:14;8.80;99.90
23683;DHT22;24897;53.514;10.482;2023-02-03T12:19:50;9.10;99.90
23683;DHT22;24897;53.514;10.482;2023-02-03T12:29:05;8.80;99.90
23683;DHT22;24897;53.514;10.482;2023-02-03T12:38:11;8.90;99.90
23683;DHT22;24897;53.514;10.482;2023-02-03T12:41:02;8.80;99.90
23683;DHT22;24897;53.514;10.482;2023-02-03T12:43:52;8.70;99.90
23683;DHT22;24897;53.514;10.482;2023-02-03T12:47:01;8.70;99.90
23683;DHT22;24897;53.514;10.482;2023-02-03T12:50:05;8.60;99.90
23683;DHT22;24897;53.514;10.482;2023-02-03T12:53:00;8.60;99.90
23683;DHT22;24897;53.514;10.482;2023-02-03T12:58:49;8.60;99.90
23683;DHT22;24897;53.514;10.482;2023-02-03T13:01:49;8.60;99.90
23683;DHT22;24897;53.514;10.482;2023-02-03T13:04:42;8.70;99.90
23683;DHT22;24897;53.514;10.482;2023-02-03T13:07:51;8.60;99.90
23683;DHT22;24897;53.514;10.482;2023-02-03T13:10:45;8.40;99.90
23683;DHT22;24897;53.514;10.482;2023-02-03T13:13:41;8.50;99.90
23683;DHT22;24897;53.514;10.482;2023-02-03T13:16:31;8.40;99.90
23683;DHT22;24897;53.514;10.482;2023-02-03T13:19:22;8.40;99.90
23683;DHT22;24897;53.514;10.482;2023-02-03T13:22:11;8.40;99.90
23683;DHT22;24897;53.514;10.482;2023-02-03T13:25:59;8.40;99.90
23683;DHT22;24897;53.514;10.482;2023-02-03T13:31:39;8.40;99.90
23683;DHT22;24897;53.514;10.482;2023-02-03T13:37:47;8.50;99.90
23683;DHT22;24897;53.514;10.482;2023-02-03T13:40:50;8.40;99.90
23683;DHT22;24897;53.514;10.482;2023-02-03T13:43:40;8.30;99.90
23683;DHT22;24897;53.514;10.482;2023-02-03T13:46:33;8.60;99.90
23683;DHT22;24897;53.514;10.482;2023-02-03T13:49:27;8.30;99.90
23683;DHT22;24897;53.514;10.482;2023-02-03T13:52:35;8.20;99.90
23683;DHT22;24897;53.514;10.482;2023-02-03T13:55:43;8.20;99.90
23683;DHT22;24897;53.514;10.482;2023-02-03T13:58:34;8.20;99.90
23683;DHT22;24897;53.514;10.482;2023-02-03T14:07:37;8.40;99.90
23683;DHT22;24897;53.514;10.482;2023-02-03T14:10:22;8.30;99.90
23683;DHT22;24897;53.514;10.482;2023-02-03T14:13:19;8.30;99.90
23683;DHT22;24897;53.514;10.482;2023-02-03T14:16:22;8.30;99.90
23683;DHT22;24897;53.514;10.482;2023-02-03T14:19:57;8.30;99.90
23683;DHT22;24897;53.514;10.482;2023-02-03T14:22:16;8.20;99.90
23683;DHT22;24897;53.514;10.482;2023-02-03T14:25:04;8.20;99.90
23683;DHT22;24897;53.514;10.482;2023-02-03T14:28:05;8.20;99.90
23683;DHT22;24897;53.514;10.482;2023-02-03T14:31:15;8.10;99.90
23683;DHT22;24897;53.514;10.482;2023-02-03T14:34:09;8.10;99.90
23683;DHT22;24897;53.514;10.482;2023-02-03T14:37:15;8.10;99.90
23683;DHT22;24897;53.514;10.482;2023-02-03T14:57:58;8.00;99.90
23683;DHT22;24897;53.514;10.482;2023-02-03T15:00:43;8.10;99.90
23683;DHT22;24897;53.514;10.482;2023-02-03T15:03:27;8.00;99.90
23683;DHT22;24897;53.514;10.482;2023-02-03T15:09:35;7.90;99.90
23683;DHT22;24897;53.514;10.482;2023-02-03T15:12:23;7.90;99.90
23683;DHT22;24897;53.514;10.482;2023-02-03T15:15:30;7.90;99.90
23683;DHT22;24897;53.514;10.482;2023-02-03T15:18:20;7.90;99.90
23683;DHT22;24897;53.514;10.482;2023-02-03T15:21:05;7.90;99.90
23683;DHT22;24897;53.514;10.482;2023-02-03T15:23:50;7.90;99.90
23683;DHT22;24897;53.514;10.482;2023-02-03T15:26:44;7.80;99.90
23683;DHT22;24897;53.514;10.482;2023-02-03T15:29:33;7.90;99.90
23683;DHT22;24897;53.514;10.482;2023-02-03T15:32:30;7.90;99.90
23683;DHT22;24897;53.514;10.482;2023-02-03T15:35:18;7.80;99.90
23683;DHT22;24897;53.514;10.482;2023-02-03T15:38:06;7.80;99.90
23683;DHT22;24897;53.514;10.482;2023-02-03T15:40:54;7.80;99.90
23683;DHT22;24897;53.514;10.482;2023-02-03T15:43:45;7.90;99.90
23683;DHT22;24897;53.514;10.482;2023-02-03T15:49:31;7.80;99.90
23683;DHT22;24897;53.514;10.482;2023-02-03T15:52:20;7.70;99.90
23683;DHT22;24897;53.514;10.482;2023-02-03T15:56:00;7.80;99.90
23683;DHT22;24897;53.514;10.482;2023-02-03T15:58:44;7.70;99.90
23683;DHT22;24897;53.514;10.482;2023-02-03T16:01:29;7.70;99.90
23683;DHT22;24897;53.514;10.482;2023-02-03T16:04:14;7.80;99.90
23683;DHT22;24897;53.514;10.482;2023-02-03T16:06:59;7.70;99.90
23683;DHT22;24897;53.514;10.482;2023-02-03T16:09:43;7.60;99.90
23683;DHT22;24897;53.514;10.482;2023-02-03T16:12:32;7.60;99.90
23683;DHT22;24897;53.514;10.482;2023-02-03T16:15:22;7.50;99.90
23683;DHT22;24897;53.514;10.482;2023-02-03T16:18:17;7.50;99.90
23683;DHT22;24897;53.514;10.482;2023-02-03T16:21:02;7.40;99.90
23683;DHT22;24897;53.514;10.482;2023-02-03T16:23:50;7.40;99.90
23683;DHT22;24897;53.514;10.482;2023-02-03T16:26:34;7.40;99.90
23683;DHT22;24897;53.514;10.482;2023-02-03T16:29:28;7.30;99.90
23683;DHT22;24897;53.514;10.482;2023-02-03T16:32:31;7.40;99.90
23683;DHT22;24897;53.514;10.482;2023-02-03T16:35:34;7.30;99.90
23683;DHT22;24897;53.514;10.482;2023-02-03T16:38:37;7.20;99.90
23683;DHT22;24897;53.514;10.482;2023-02-03T16:41:46;7.20;99.90
23683;DHT22;24897;53.514;10.482;2023-02-03T16:44:49;7.10;99.90
23683;DHT22;24897;53.514;10.482;2023-02-03T16:47:51;7.10;99.90
23683;DHT22;24897;53.514;10.482;2023-02-03T16:50:55;7.00;99.90
23683;DHT22;24897;53.514;10.482;2023-02-03T16:53:39;7.00;99.90
23683;DHT22;24897;53.514;10.482;2023-02-03T16:56:23;6.90;99.90
23683;DHT22;24897;53.514;10.482;2023-02-03T16:59:07;6.90;99.90
23683;DHT22;24897;53.514;10.482;2023-02-03T17:01:52;7.00;99.90
23683;DHT22;24897;53.514;10.482;2023-02-03T17:04:36;7.00;99.90
23683;DHT22;24897;53.514;10.482;2023-02-03T17:07:20;6.80;99.90
23683;DHT22;24897;53.514;10.482;2023-02-03T17:10:04;6.80;99.90
23683;DHT22;24897;53.514;10.482;2023-02-03T17:12:50;6.80;99.90
23683;DHT22;24897;53.514;10.482;2023-02-03T17:15:46;6.80;99.90
23683;DHT22;24897;53.514;10.482;2023-02-03T17:18:32;6.80;99.90
23683;DHT22;24897;53.514;10.482;2023-02-03T17:21:22;6.70;99.90
23683;DHT22;24897;53.514;10.482;2023-02-03T17:24:07;6.80;99.90
23683;DHT22;24897;53.514;10.482;2023-02-03T17:26:51;6.80;99.90
23683;DHT22;24897;53.514;10.482;2023-02-03T17:29:37;6.80;99.90
23683;DHT22;24897;53.514;10.482;2023-02-03T17:32:22;6.70;99.90
23683;DHT22;24897;53.514;10.482;2023-02-03T17:35:06;7.70;99.90
23683;DHT22;24897;53.514;10.482;2023-02-03T17:37:51;6.60;99.90
23683;DHT22;24897;53.514;10.482;2023-02-03T17:40:38;6.70;99.90
23683;DHT22;24897;53.514;10.482;2023-02-03T17:43:23;6.70;99.90
23683;DHT22;24897;53.514;10.482;2023-02-03T17:46:09;6.70;99.90
23683;DHT22;24897;53.514;10.482;2023-02-03T17:48:55;6.70;99.90
23683;DHT22;24897;53.514;10.482;2023-02-03T17:51:40;6.70;99.90
23683;DHT22;24897;53.514;10.482;2023-02-03T17:54:24;6.70;99.90
23683;DHT22;24897;53.514;10.482;2023-02-03T17:57:08;6.60;99.90
23683;DHT22;24897;53.514;10.482;2023-02-03T17:59:52;6.70;99.90
23683;DHT22;24897;53.514;10.482;2023-02-03T18:02:38;6.70;99.90
23683;DHT22;24897;53.514;10.482;2023-02-03T18:05:23;6.70;99.90
23683;DHT22;24897;53.514;10.482;2023-02-03T18:08:07;6.70;99.90
23683;DHT22;24897;53.514;10.482;2023-02-03T18:10:52;6.70;99.90
23683;DHT22;24897;53.514;10.482;2023-02-03T18:13:37;7.20;99.90
23683;DHT22;24897;53.514;10.482;2023-02-03T18:16:24;6.80;99.90
23683;DHT22;24897;53.514;10.482;2023-02-03T18:19:12;6.70;99.90
23683;DHT22;24897;53.514;10.482;2023-02-03T18:21:57;6.70;99.90
23683;DHT22;24897;53.514;10.482;2023-02-03T18:24:43;6.70;99.90
23683;DHT22;24897;53.514;10.482;2023-02-03T18:27:34;6.70;99.90
23683;DHT22;24897;53.514;10.482;2023-02-03T18:30:18;6.80;99.90
23683;DHT22;24897;53.514;10.482;2023-02-03T18:33:04;6.70;99.90
23683;DHT22;24897;53.514;10.482;2023-02-03T18:35:48;6.70;99.90
23683;DHT22;24897;53.514;10.482;2023-02-03T18:38:33;6.70;99.90
23683;DHT22;24897;53.514;10.482;2023-02-03T18:41:23;7.60;99.90
23683;DHT22;24897;53.514;10.482;2023-02-03T18:44:08;6.80;99.90
23683;DHT22;24897;53.514;10.482;2023-02-03T18:46:53;6.80;99.90
23683;DHT22;24897;53.514;10.482;2023-02-03T18:49:37;6.90;99.90
23683;DHT22;24897;53.514;10.482;2023-02-03T18:52:22;6.80;99.90
23683;DHT22;24897;53.514;10.482;2023-02-03T18:55:06;6.90;99.90
23683;DHT22;24897;53.514;10.482;2023-02-03T18:57:50;6.80;99.90
23683;DHT22;24897;53.514;10.482;2023-02-03T19:00:36;6.80;99.90
23683;DHT22;24897;53.514;10.482;2023-02-03T19:03:20;6.70;99.90
23683;DHT22;24897;53.514;10.482;2023-02-03T19:06:08;6.80;99.90
23683;DHT22;24897;53.514;10.482;2023-02-03T19:08:53;6.80;99.90
23683;DHT22;24897;53.514;10.482;2023-02-03T19:11:37;6.80;99.90
23683;DHT22;24897;53.514;10.482;2023-02-03T19:14:21;6.80;99.90
23683;DHT22;24897;53.514;10.482;2023-02-03T19:17:07;6.80;99.90
23683;DHT22;24897;53.514;10.482;2023-02-03T19:19:53;6.80;99.90
23683;DHT22;24897;53.514;10.482;2023-02-03T19:22:37;6.80;99.90
23683;DHT22;24897;53.514;10.482;2023-02-03T19:25:21;7.00;99.90
23683;DHT22;24897;53.514;10.482;2023-02-03T19:28:06;6.90;99.90
23683;DHT22;24897;53.514;10.482;2023-02-03T19:30:51;6.90;99.90
23683;DHT22;24897;53.514;10.482;2023-02-03T19:33:36;6.90;99.90
23683;DHT22;24897;53.514;10.482;2023-02-03T19:36:21;6.90;99.90
23683;DHT22;24897;53.514;10.482;2023-02-03T19:39:05;6.90;99.90
23683;DHT22;24897;53.514;10.482;2023-02-03T19:41:50;6.90;99.90
23683;DHT22;24897;53.514;10.482;2023-02-03T19:44:34;6.90;99.90
23683;DHT22;24897;53.514;10.482;2023-02-03T19:47:20;6.90;99.90
23683;DHT22;24897;53.514;10.482;2023-02-03T19:50:04;6.90;99.90
23683;DHT22;24897;53.514;10.482;2023-02-03T19:52:49;6.90;99.90
23683;DHT22;24897;53.514;10.482;2023-02-03T19:55:33;7.00;99.90
23683;DHT22;24897;53.514;10.482;2023-02-03T19:58:17;6.90;99.90
23683;DHT22;24897;53.514;10.482;2023-02-03T20:01:02;7.00;99.90
23683;DHT22;24897;53.514;10.482;2023-02-03T20:03:46;7.00;99.90
23683;DHT22;24897;53.514;10.482;2023-02-03T20:06:30;6.90;99.90
23683;DHT22;24897;53.514;10.482;2023-02-03T20:09:14;7.10;99.90
23683;DHT22;24897;53.514;10.482;2023-02-03T20:11:58;6.90;99.90
23683;DHT22;24897;53.514;10.482;2023-02-03T20:14:43;7.00;99.90
23683;DHT22;24897;53.514;10.482;2023-02-03T20:17:28;7.00;99.90
23683;DHT22;24897;53.514;10.482;2023-02-03T20:20:12;7.00;99.90
23683;DHT22;24897;53.514;10.482;2023-02-03T20:22:56;6.90;99.90
23683;DHT22;24897;53.514;10.482;2023-02-03T20:25:41;6.90;99.90
23683;DHT22;24897;53.514;10.482;2023-02-03T20:28:27;6.90;99.90
23683;DHT22;24897;53.514;10.482;2023-02-03T20:31:11;6.80;99.90
23683;DHT22;24897;53.514;10.482;2023-02-03T20:33:56;6.70;99.90
23683;DHT22;24897;53.514;10.482;2023-02-03T20:36:40;6.80;99.90
23683;DHT22;24897;53.514;10.482;2023-02-03T20:39:24;6.80;99.90
23683;DHT22;24897;53.514;10.482;2023-02-03T20:42:13;6.60;99.90
23683;DHT22;24897;53.514;10.482;2023-02-03T20:44:58;6.50;99.90
23683;DHT22;24897;53.514;10.482;2023-02-03T20:47:42;6.30;99.90
23683;DHT22;24897;53.514;10.482;2023-02-03T20:50:27;6.20;99.90
23683;DHT22;24897;53.514;10.482;2023-02-03T20:53:18;6.10;99.90
23683;DHT22;24897;53.514;10.482;2023-02-03T20:56:09;6.10;99.90
23683;DHT22;24897;53.514;10.482;2023-02-03T20:58:54;5.80;99.90
23683;DHT22;24897;53.514;10.482;2023-02-03T21:01:39;5.70;99.90
23683;DHT22;24897;53.514;10.482;2023-02-03T21:04:23;5.60;99.90
23683;DHT22;24897;53.514;10.482;2023-02-03T21:07:29;5.50;99.90
23683;DHT22;24897;53.514;10.482;2023-02-03T21:10:19;5.50;99.90
23683;DHT22;24897;53.514;10.482;2023-02-03T21:13:24;5.50;99.90
23683;DHT22;24897;53.514;10.482;2023-02-03T21:16:24;5.90;99.90
23683;DHT22;24897;53.514;10.482;2023-02-03T21:19:11;5.50;99.90
23683;DHT22;24897;53.514;10.482;2023-02-03T21:22:08;5.40;99.90
23683;DHT22;24897;53.514;10.482;2023-02-03T21:24:59;5.40;99.90
23683;DHT22;24897;53.514;10.482;2023-02-03T21:27:44;5.40;99.90
23683;DHT22;24897;53.514;10.482;2023-02-03T21:30:31;5.40;99.90
23683;DHT22;24897;53.514;10.482;2023-02-03T21:33:37;5.50;99.90
23683;DHT22;24897;53.514;10.482;2023-02-03T21:36:30;5.30;99.90
23683;DHT22;24897;53.514;10.482;2023-02-03T21:39:29;5.20;99.90
23683;DHT22;24897;53.514;10.482;2023-02-03T21:42:33;5.20;99.90
23683;DHT22;24897;53.514;10.482;2023-02-03T21:45:33;5.20;99.90
23683;DHT22;24897;53.514;10.482;2023-02-03T21:48:30;5.20;99.90
23683;DHT22;24897;53.514;10.482;2023-02-03T21:54:26;5.10;99.90
23683;DHT22;24897;53.514;10.482;2023-02-03T21:57:14;5.00;99.90
23683;DHT22;24897;53.514;10.482;2023-02-03T21:59:58;5.00;99.90
23683;DHT22;24897;53.514;10.482;2023-02-03T22:02:59;5.00;99.90
23683;DHT22;24897;53.514;10.482;2023-02-03T22:05:43;4.90;99.90
23683;DHT22;24897;53.514;10.482;2023-02-03T22:08:29;4.90;99.90
23683;DHT22;24897;53.514;10.482;2023-02-03T22:11:17;4.90;99.90
23683;DHT22;24897;53.514;10.482;2023-02-03T22:14:01;4.80;99.90
23683;DHT22;24897;53.514;10.482;2023-02-03T22:16:46;4.80;99.90
23683;DHT22;24897;53.514;10.482;2023-02-03T22:19:30;4.80;99.90
23683;DHT22;24897;53.514;10.482;2023-02-03T22:22:15;4.80;99.90
23683;DHT22;24897;53.514;10.482;2023-02-03T22:24:59;4.80;99.90
23683;DHT22;24897;53.514;10.482;2023-02-03T22:27:43;4.80;99.90
23683;DHT22;24897;53.514;10.482;2023-02-03T22:30:28;4.90;99.90
23683;DHT22;24897;53.514;10.482;2023-02-03T22:33:11;4.80;99.90
23683;DHT22;24897;53.514;10.482;2023-02-03T22:35:56;4.80;99.90
23683;DHT22;24897;53.514;10.482;2023-02-03T22:38:41;4.80;99.90